Briefing drone pour Dunieres

Rechercher une autre localisation

Conditions de vol :


Nous sommes le : Vendredi 02 octobre 2020
Il est 22:21 UTC (00:21 LT)

Lever de soleil : 05:15 UTC (07:15 LT)
Coucher de soleil : 17:47 UTC (19:47 LT)


Warning: min(): Array must contain at least one element in /homepages/6/d509196549/htdocs/briefdrone/includes/function/metar/metar.php on line 1265

Météo

L'essentiel des conditions de vol

VIGILANCE MÉTÉO FRANCE - Haute-Loire (43)
Vigilance Jaune : Pluie-inondation / Vent violent
CARTE TEMSI
CARTES DES FRONTS
METAR de LFMH
LFMH 012200Z AUTO 17005KT 9999 ///TCU 13/07 Q1002

Date d'émission: 01/10/2020
Heure d'émission: 22:00 UTC
Vent: 170° pour 5 KT (9 km/h)
Visibilité horizontale: > 10 km
Température: 13 °C
Point de rosée: 7 °C
Humidité: 67%
Pression (QNH): 1002 hPa
TAF de LFMH
LFMH 012011Z 0120/0212 CNL

Conditions prévues :

Heure d'émission : Bulletin éffectué le 01 à 20:00 UTC
Prévision : Valide du 01 a 20:00 UTC au 02 a 12:00 UTC
Nuages : à 0ft (0 m)
WEBCAM POUR DUNIERES

Réglementation

Voler en sécurité

CARTES AERONAUTIQUE 1/500.000
CARTES VAC (LFMH)
SUP AIP




Chargement des AIP...
NOTAM (DUNIERES + Terrain à proximité / FIR )




Chargement des NOTAMS...
CONTACT PREFECTURE 43


Avertissement : Les données mises à disposition sont indicatives. Oxygène Drone ne pourra être tenu responsable de dégâts causés aux biens et aux personnes.